LHA2527 EDDP-LDDU
Flight info
| Callsign | LHA2527 |
|---|---|
| Flight time | 1h 38m |
| Altitude | 31000 |
| Route | DRN Z21 OMELO DCT EVIKU DCT VOZ DCT LANUX DCT MUREG DCT PETOV DCT PALEZ DCT SIPAL |
| Aircraft | A319/M-SDE1E2FGIRWYZ/S |
Departure
| Time | 2026-05-07 04:54 |
|---|---|
| Airport | Leipzig/Halle Airport (EDDP) |
Arrival
| Time | 2026-05-07 06:32 |
|---|---|
| Airport | Dubrovnik Ruđer Bošković Airport (LDDU) |
| Time | Latitude | Longitude | Altitude | Speed | Heading |
|---|---|---|---|---|---|
| 2026-05-07 04:35 | 51.42732 | 12.23994 | 468 ft | 0 kts | 266° |
| 2026-05-07 04:43 | 51.42732 | 12.23998 | 468 ft | 3 kts | 266° |
| 2026-05-07 04:43 | 51.42734 | 12.24040 | 468 ft | 3 kts | 266° |
| 2026-05-07 04:43 | 51.42736 | 12.24082 | 468 ft | 3 kts | 266° |
| 2026-05-07 04:43 | 51.42727 | 12.24118 | 468 ft | 3 kts | 317° |
| 2026-05-07 04:44 | 51.42709 | 12.24130 | 468 ft | 0 kts | 359° |
| 2026-05-07 04:44 | 51.42709 | 12.24131 | 468 ft | 0 kts | 357° |
| 2026-05-07 04:46 | 51.42712 | 12.24130 | 468 ft | 1 kts | 359° |
| 2026-05-07 04:47 | 51.42725 | 12.24130 | 468 ft | 2 kts | 359° |
| 2026-05-07 04:47 | 51.42747 | 12.24130 | 468 ft | 3 kts | 0° |
| 2026-05-07 04:47 | 51.42778 | 12.24130 | 468 ft | 5 kts | 1° |
| 2026-05-07 04:47 | 51.42818 | 12.24130 | 468 ft | 6 kts | 358° |
| 2026-05-07 04:48 | 51.42867 | 12.24126 | 468 ft | 7 kts | 356° |
| 2026-05-07 04:48 | 51.42918 | 12.24098 | 468 ft | 8 kts | 300° |
| 2026-05-07 04:48 | 51.42923 | 12.23993 | 468 ft | 10 kts | 266° |
| 2026-05-07 04:48 | 51.42916 | 12.23860 | 468 ft | 13 kts | 265° |
| 2026-05-07 04:49 | 51.42907 | 12.23677 | 468 ft | 19 kts | 265° |
| 2026-05-07 04:49 | 51.42898 | 12.23441 | 468 ft | 23 kts | 266° |
| 2026-05-07 04:49 | 51.42885 | 12.23181 | 468 ft | 23 kts | 265° |
| 2026-05-07 04:49 | 51.42874 | 12.22922 | 468 ft | 23 kts | 266° |
| 2026-05-07 04:50 | 51.42863 | 12.22668 | 468 ft | 22 kts | 265° |
| 2026-05-07 04:50 | 51.42850 | 12.22416 | 468 ft | 22 kts | 265° |
| 2026-05-07 04:50 | 51.42838 | 12.22166 | 468 ft | 22 kts | 266° |
| 2026-05-07 04:50 | 51.42825 | 12.21920 | 468 ft | 22 kts | 263° |
| 2026-05-07 04:51 | 51.42813 | 12.21677 | 468 ft | 21 kts | 266° |
| 2026-05-07 04:51 | 51.42809 | 12.21492 | 468 ft | 12 kts | 287° |
| 2026-05-07 04:51 | 51.42886 | 12.21460 | 468 ft | 13 kts | 15° |
| 2026-05-07 04:51 | 51.42977 | 12.21508 | 468 ft | 14 kts | 16° |
| 2026-05-07 04:52 | 51.43071 | 12.21569 | 468 ft | 14 kts | 36° |
| 2026-05-07 04:52 | 51.43127 | 12.21704 | 468 ft | 15 kts | 85° |
| 2026-05-07 04:52 | 51.43120 | 12.21851 | 468 ft | 12 kts | 71° |
| 2026-05-07 04:52 | 51.43142 | 12.21986 | 468 ft | 12 kts | 84° |
| 2026-05-07 04:53 | 51.43145 | 12.22023 | 468 ft | 0 kts | 84° |
| 2026-05-07 04:53 | 51.43145 | 12.22031 | 468 ft | 5 kts | 84° |
| 2026-05-07 04:53 | 51.43171 | 12.22497 | 469 ft | 82 kts | 84° |
| 2026-05-07 04:53 | 51.43232 | 12.23807 | 470 ft | 150 kts | 84° |
| 2026-05-07 04:54 | 51.43269 | 12.25658 | 870 ft | 173 kts | 87° |
| 2026-05-07 04:54 | 51.43283 | 12.27476 | 1805 ft | 162 kts | 88° |
| 2026-05-07 04:54 | 51.43362 | 12.29214 | 2628 ft | 163 kts | 84° |
| 2026-05-07 04:54 | 51.43492 | 12.31085 | 3205 ft | 179 kts | 84° |
| 2026-05-07 04:55 | 51.43626 | 12.33196 | 3682 ft | 201 kts | 85° |
| 2026-05-07 04:55 | 51.43754 | 12.35514 | 4257 ft | 220 kts | 86° |
| 2026-05-07 04:55 | 51.43881 | 12.38037 | 4807 ft | 240 kts | 87° |
| 2026-05-07 04:55 | 51.44011 | 12.40791 | 5083 ft | 253 kts | 87° |
| 2026-05-07 04:56 | 51.44143 | 12.43638 | 5106 ft | 254 kts | 87° |
| 2026-05-07 04:56 | 51.44271 | 12.46451 | 5109 ft | 254 kts | 87° |
| 2026-05-07 04:56 | 51.44399 | 12.49264 | 5110 ft | 254 kts | 88° |
| 2026-05-07 04:56 | 51.44277 | 12.52059 | 5106 ft | 252 kts | 104° |
| 2026-05-07 04:57 | 51.43612 | 12.54642 | 5107 ft | 252 kts | 120° |
| 2026-05-07 04:57 | 51.42690 | 12.57045 | 5103 ft | 252 kts | 122° |
| 2026-05-07 04:57 | 51.41740 | 12.59423 | 5095 ft | 252 kts | 122° |
| 2026-05-07 04:57 | 51.40802 | 12.61761 | 5088 ft | 253 kts | 122° |
| 2026-05-07 04:58 | 51.39841 | 12.64165 | 5366 ft | 261 kts | 122° |
| 2026-05-07 04:58 | 51.38871 | 12.66610 | 6379 ft | 261 kts | 123° |
| 2026-05-07 04:58 | 51.37919 | 12.69023 | 7414 ft | 259 kts | 124° |
| 2026-05-07 04:58 | 51.36953 | 12.71467 | 8295 ft | 264 kts | 125° |
| 2026-05-07 04:59 | 51.35966 | 12.73957 | 9143 ft | 268 kts | 126° |
| 2026-05-07 04:59 | 51.34977 | 12.76443 | 9953 ft | 273 kts | 127° |
| 2026-05-07 04:59 | 51.33943 | 12.79035 | 10593 ft | 285 kts | 127° |
| 2026-05-07 04:59 | 51.32835 | 12.81796 | 11017 ft | 303 kts | 127° |
| 2026-05-07 05:00 | 51.31657 | 12.84735 | 11402 ft | 322 kts | 127° |
| 2026-05-07 05:00 | 51.30427 | 12.87810 | 11792 ft | 339 kts | 127° |
| 2026-05-07 05:00 | 51.29154 | 12.91001 | 12438 ft | 346 kts | 127° |
| 2026-05-07 05:00 | 51.27858 | 12.94254 | 13178 ft | 350 kts | 127° |
| 2026-05-07 05:01 | 51.26537 | 12.97561 | 13880 ft | 355 kts | 128° |
| 2026-05-07 05:01 | 51.25197 | 13.00902 | 14492 ft | 362 kts | 128° |
| 2026-05-07 05:01 | 51.23831 | 13.04295 | 15051 ft | 370 kts | 128° |
| 2026-05-07 05:01 | 51.22417 | 13.07804 | 15623 ft | 377 kts | 128° |
| 2026-05-07 05:02 | 51.20990 | 13.11344 | 16178 ft | 384 kts | 128° |
| 2026-05-07 05:02 | 51.19536 | 13.14945 | 16718 ft | 391 kts | 127° |
| 2026-05-07 05:02 | 51.18053 | 13.18615 | 17246 ft | 397 kts | 127° |
| 2026-05-07 05:02 | 51.16564 | 13.22306 | 17754 ft | 404 kts | 127° |
| 2026-05-07 05:03 | 51.15047 | 13.26120 | 18271 ft | 410 kts | 126° |
| 2026-05-07 05:03 | 51.13528 | 13.29952 | 18778 ft | 416 kts | 126° |
| 2026-05-07 05:03 | 51.11961 | 13.33900 | 19283 ft | 421 kts | 126° |
| 2026-05-07 05:03 | 51.10390 | 13.37844 | 19772 ft | 427 kts | 126° |
| 2026-05-07 05:04 | 51.08794 | 13.41843 | 20256 ft | 432 kts | 126° |
| 2026-05-07 05:04 | 51.07179 | 13.45878 | 20730 ft | 437 kts | 126° |
| 2026-05-07 05:04 | 51.05521 | 13.50016 | 21204 ft | 442 kts | 126° |
| 2026-05-07 05:04 | 51.03871 | 13.54122 | 21660 ft | 447 kts | 126° |
| 2026-05-07 05:05 | 51.02202 | 13.58270 | 22102 ft | 452 kts | 126° |
| 2026-05-07 05:05 | 51.00499 | 13.62515 | 22534 ft | 457 kts | 126° |
| 2026-05-07 05:05 | 50.98795 | 13.66807 | 22948 ft | 462 kts | 126° |
| 2026-05-07 05:05 | 50.97079 | 13.71134 | 23353 ft | 466 kts | 126° |
| 2026-05-07 05:06 | 50.95348 | 13.75487 | 23746 ft | 471 kts | 126° |
| 2026-05-07 05:06 | 50.93581 | 13.79850 | 24127 ft | 474 kts | 128° |
| 2026-05-07 05:06 | 50.91649 | 13.84128 | 24506 ft | 477 kts | 131° |
| 2026-05-07 05:06 | 50.89619 | 13.88289 | 24873 ft | 481 kts | 131° |
| 2026-05-07 05:07 | 50.87544 | 13.92482 | 25224 ft | 486 kts | 131° |
| 2026-05-07 05:07 | 50.85437 | 13.96679 | 25676 ft | 486 kts | 133° |
| 2026-05-07 05:07 | 50.83219 | 14.00678 | 26303 ft | 481 kts | 137° |
| 2026-05-07 05:07 | 50.80862 | 14.04409 | 26714 ft | 482 kts | 141° |
| 2026-05-07 05:08 | 50.78413 | 14.07963 | 27033 ft | 486 kts | 142° |
| 2026-05-07 05:08 | 50.75882 | 14.11580 | 27357 ft | 491 kts | 142° |
| 2026-05-07 05:08 | 50.73370 | 14.15164 | 27683 ft | 495 kts | 142° |
| 2026-05-07 05:08 | 50.70821 | 14.18809 | 28065 ft | 497 kts | 141° |
| 2026-05-07 05:09 | 50.68255 | 14.22489 | 28530 ft | 497 kts | 141° |
| 2026-05-07 05:09 | 50.65694 | 14.26163 | 28973 ft | 498 kts | 141° |
| 2026-05-07 05:09 | 50.63155 | 14.29802 | 29363 ft | 499 kts | 141° |
| 2026-05-07 05:09 | 50.60572 | 14.33498 | 29691 ft | 503 kts | 141° |
| 2026-05-07 05:10 | 50.58096 | 14.37038 | 29980 ft | 506 kts | 140° |
| 2026-05-07 05:10 | 50.55561 | 14.40654 | 30279 ft | 509 kts | 140° |
| 2026-05-07 05:10 | 50.52914 | 14.44425 | 30592 ft | 512 kts | 140° |
| 2026-05-07 05:10 | 50.50265 | 14.48094 | 30837 ft | 513 kts | 144° |
| 2026-05-07 05:11 | 50.44218 | 14.54098 | 30864 ft | 521 kts | 160° |
| 2026-05-07 05:11 | 50.37407 | 14.57574 | 30864 ft | 517 kts | 173° |
| 2026-05-07 05:12 | 50.30378 | 14.59994 | 30861 ft | 517 kts | 174° |
| 2026-05-07 05:12 | 50.23402 | 14.62414 | 30860 ft | 517 kts | 174° |
| 2026-05-07 05:13 | 50.16397 | 14.64921 | 30860 ft | 518 kts | 174° |
| 2026-05-07 05:13 | 50.09400 | 14.67447 | 30859 ft | 517 kts | 174° |
| 2026-05-07 05:14 | 50.02407 | 14.69966 | 30860 ft | 517 kts | 174° |
| 2026-05-07 05:14 | 49.95413 | 14.72477 | 30860 ft | 517 kts | 174° |
| 2026-05-07 05:15 | 49.88466 | 14.74964 | 30857 ft | 517 kts | 174° |
| 2026-05-07 05:15 | 49.81469 | 14.77462 | 30860 ft | 517 kts | 174° |
| 2026-05-07 05:16 | 49.74474 | 14.79952 | 30860 ft | 517 kts | 174° |
| 2026-05-07 05:16 | 49.67475 | 14.82435 | 30860 ft | 517 kts | 174° |
| 2026-05-07 05:17 | 49.60502 | 14.84909 | 30859 ft | 518 kts | 173° |
| 2026-05-07 05:17 | 49.53627 | 14.88513 | 30859 ft | 529 kts | 161° |
| 2026-05-07 05:18 | 49.47221 | 14.94236 | 30859 ft | 538 kts | 148° |
| 2026-05-07 05:18 | 49.41299 | 15.01182 | 30860 ft | 541 kts | 144° |
| 2026-05-07 05:19 | 49.35332 | 15.08273 | 30859 ft | 543 kts | 145° |
| 2026-05-07 05:19 | 49.29321 | 15.15284 | 30860 ft | 544 kts | 145° |
| 2026-05-07 05:20 | 49.23301 | 15.22234 | 30863 ft | 545 kts | 145° |
| 2026-05-07 05:20 | 49.17289 | 15.29142 | 30871 ft | 545 kts | 145° |
| 2026-05-07 05:21 | 49.08194 | 15.39554 | 30881 ft | 546 kts | 145° |
| 2026-05-07 05:22 | 49.02211 | 15.46360 | 30885 ft | 548 kts | 143° |
| 2026-05-07 05:22 | 48.96099 | 15.53307 | 30886 ft | 550 kts | 142° |
| 2026-05-07 05:23 | 48.89596 | 15.59358 | 30884 ft | 549 kts | 158° |
| 2026-05-07 05:23 | 48.82373 | 15.62406 | 30886 ft | 539 kts | 178° |
| 2026-05-07 05:24 | 48.74933 | 15.63120 | 30901 ft | 535 kts | 183° |
| 2026-05-07 05:24 | 48.67536 | 15.63603 | 30908 ft | 535 kts | 183° |
| 2026-05-07 05:25 | 48.60104 | 15.64199 | 30911 ft | 536 kts | 182° |
| 2026-05-07 05:25 | 48.52729 | 15.64853 | 30913 ft | 536 kts | 182° |
| 2026-05-07 05:26 | 48.45275 | 15.65532 | 30913 ft | 535 kts | 183° |
| 2026-05-07 05:26 | 48.37887 | 15.66199 | 30917 ft | 535 kts | 183° |
| 2026-05-07 05:27 | 48.30474 | 15.66866 | 30925 ft | 535 kts | 183° |
| 2026-05-07 05:27 | 48.23058 | 15.67533 | 30934 ft | 535 kts | 183° |
| 2026-05-07 05:28 | 48.15693 | 15.68192 | 30939 ft | 535 kts | 183° |
| 2026-05-07 05:28 | 48.08287 | 15.68854 | 30941 ft | 535 kts | 183° |
| 2026-05-07 05:29 | 48.00872 | 15.69514 | 30941 ft | 535 kts | 183° |
| 2026-05-07 05:29 | 47.93473 | 15.70171 | 30942 ft | 535 kts | 183° |
| 2026-05-07 05:30 | 47.86033 | 15.70829 | 30939 ft | 535 kts | 183° |
| 2026-05-07 05:30 | 47.78618 | 15.71484 | 30941 ft | 535 kts | 183° |
| 2026-05-07 05:31 | 47.71249 | 15.72133 | 30942 ft | 535 kts | 183° |
| 2026-05-07 05:31 | 47.63840 | 15.72784 | 30942 ft | 535 kts | 183° |
| 2026-05-07 05:32 | 47.56390 | 15.73435 | 30942 ft | 535 kts | 183° |
| 2026-05-07 05:32 | 47.48995 | 15.74081 | 30941 ft | 535 kts | 183° |
| 2026-05-07 05:33 | 47.41605 | 15.74724 | 30941 ft | 535 kts | 183° |
| 2026-05-07 05:33 | 47.34190 | 15.75368 | 30941 ft | 535 kts | 183° |
| 2026-05-07 05:34 | 47.26801 | 15.76007 | 30942 ft | 535 kts | 183° |
| 2026-05-07 05:34 | 47.19417 | 15.76644 | 30942 ft | 535 kts | 183° |
| 2026-05-07 05:35 | 47.11977 | 15.77284 | 30942 ft | 535 kts | 183° |
| 2026-05-07 05:35 | 47.04596 | 15.77917 | 30941 ft | 535 kts | 183° |
| 2026-05-07 05:36 | 46.97193 | 15.78535 | 30940 ft | 538 kts | 181° |
| 2026-05-07 05:36 | 46.89686 | 15.79162 | 30939 ft | 541 kts | 180° |
| 2026-05-07 05:37 | 46.82294 | 15.79806 | 30940 ft | 542 kts | 179° |
| 2026-05-07 05:37 | 46.75191 | 15.80470 | 30941 ft | 543 kts | 177° |
| 2026-05-07 05:38 | 46.67726 | 15.82122 | 30941 ft | 545 kts | 168° |
| 2026-05-07 05:38 | 46.60445 | 15.85050 | 30942 ft | 545 kts | 163° |
| 2026-05-07 05:39 | 46.53222 | 15.88211 | 30942 ft | 545 kts | 163° |
| 2026-05-07 05:39 | 46.45986 | 15.91302 | 30942 ft | 545 kts | 163° |
| 2026-05-07 05:40 | 46.38730 | 15.94358 | 30941 ft | 545 kts | 164° |
| 2026-05-07 05:40 | 46.31319 | 15.96366 | 30941 ft | 543 kts | 178° |
| 2026-05-07 05:41 | 46.23846 | 15.95963 | 30941 ft | 535 kts | 193° |
| 2026-05-07 05:41 | 46.16607 | 15.94028 | 30944 ft | 533 kts | 196° |
| 2026-05-07 05:42 | 46.09341 | 15.91983 | 30950 ft | 534 kts | 195° |
| 2026-05-07 05:42 | 46.02057 | 15.90028 | 30959 ft | 534 kts | 195° |
| 2026-05-07 05:43 | 45.94804 | 15.88130 | 30965 ft | 534 kts | 195° |
| 2026-05-07 05:43 | 45.87490 | 15.86231 | 30963 ft | 534 kts | 195° |
| 2026-05-07 05:44 | 45.80211 | 15.84347 | 30967 ft | 534 kts | 195° |
| 2026-05-07 05:44 | 45.72921 | 15.82465 | 30968 ft | 534 kts | 195° |
| 2026-05-07 05:45 | 45.65682 | 15.80600 | 30968 ft | 534 kts | 195° |
| 2026-05-07 05:45 | 45.58384 | 15.78724 | 30968 ft | 534 kts | 195° |
| 2026-05-07 05:46 | 45.51098 | 15.76858 | 30968 ft | 534 kts | 195° |
| 2026-05-07 05:46 | 45.43816 | 15.74996 | 30968 ft | 534 kts | 195° |
| 2026-05-07 05:47 | 45.36536 | 15.73140 | 30968 ft | 534 kts | 195° |
| 2026-05-07 05:47 | 45.29259 | 15.71290 | 30968 ft | 534 kts | 195° |
| 2026-05-07 05:48 | 45.21968 | 15.69441 | 30968 ft | 534 kts | 195° |
| 2026-05-07 05:48 | 45.14697 | 15.67602 | 30968 ft | 534 kts | 195° |
| 2026-05-07 05:49 | 45.07396 | 15.65759 | 30968 ft | 534 kts | 195° |
| 2026-05-07 05:49 | 45.00085 | 15.63915 | 30976 ft | 536 kts | 194° |
| 2026-05-07 05:50 | 44.92736 | 15.62069 | 30992 ft | 538 kts | 194° |
| 2026-05-07 05:50 | 44.85428 | 15.60249 | 31004 ft | 538 kts | 194° |
| 2026-05-07 05:51 | 44.78072 | 15.58417 | 31015 ft | 538 kts | 194° |
| 2026-05-07 05:51 | 44.70706 | 15.56585 | 31020 ft | 537 kts | 194° |
| 2026-05-07 05:52 | 44.63338 | 15.54914 | 31016 ft | 541 kts | 187° |
| 2026-05-07 05:52 | 44.59591 | 15.55046 | 31018 ft | 545 kts | 173° |
| 2026-05-07 05:52 | 44.55912 | 15.56266 | 31021 ft | 544 kts | 159° |
| 2026-05-07 05:52 | 44.52536 | 15.58514 | 31017 ft | 527 kts | 144° |
| 2026-05-07 05:53 | 44.49643 | 15.61434 | 31027 ft | 508 kts | 136° |
| 2026-05-07 05:53 | 44.44217 | 15.67690 | 31025 ft | 505 kts | 135° |
| 2026-05-07 05:54 | 44.38758 | 15.73903 | 31022 ft | 506 kts | 136° |
| 2026-05-07 05:54 | 44.33283 | 15.79959 | 31023 ft | 506 kts | 136° |
| 2026-05-07 05:55 | 44.27754 | 15.86004 | 31023 ft | 506 kts | 136° |
| 2026-05-07 05:55 | 44.22200 | 15.92054 | 31022 ft | 506 kts | 137° |
| 2026-05-07 05:56 | 44.16681 | 15.98049 | 31022 ft | 506 kts | 137° |
| 2026-05-07 05:56 | 44.11134 | 16.04060 | 31022 ft | 505 kts | 136° |
| 2026-05-07 05:57 | 44.05571 | 16.10078 | 31023 ft | 506 kts | 136° |
| 2026-05-07 05:57 | 44.00029 | 16.16057 | 31022 ft | 506 kts | 137° |
| 2026-05-07 05:58 | 43.94508 | 16.22001 | 31023 ft | 506 kts | 137° |
| 2026-05-07 05:58 | 43.88919 | 16.27998 | 31019 ft | 506 kts | 137° |
| 2026-05-07 05:59 | 43.83360 | 16.33950 | 31022 ft | 506 kts | 136° |
| 2026-05-07 05:59 | 43.77829 | 16.39859 | 31022 ft | 506 kts | 137° |
| 2026-05-07 06:00 | 43.72277 | 16.45772 | 30277 ft | 506 kts | 137° |
| 2026-05-07 06:00 | 43.69474 | 16.48762 | 29228 ft | 514 kts | 137° |
| 2026-05-07 06:00 | 43.66674 | 16.51743 | 28428 ft | 515 kts | 137° |
| 2026-05-07 06:00 | 43.63840 | 16.54749 | 27798 ft | 511 kts | 137° |
| 2026-05-07 06:01 | 43.61056 | 16.57696 | 27309 ft | 503 kts | 138° |
| 2026-05-07 06:01 | 43.58283 | 16.60627 | 26815 ft | 496 kts | 137° |
| 2026-05-07 06:01 | 43.55591 | 16.63470 | 26335 ft | 489 kts | 138° |
| 2026-05-07 06:01 | 43.52909 | 16.66301 | 25857 ft | 482 kts | 139° |
| 2026-05-07 06:02 | 43.50300 | 16.69053 | 25393 ft | 475 kts | 139° |
| 2026-05-07 06:02 | 43.47697 | 16.71795 | 24932 ft | 468 kts | 139° |
| 2026-05-07 06:02 | 43.45136 | 16.74490 | 24480 ft | 461 kts | 139° |
| 2026-05-07 06:02 | 43.42606 | 16.77151 | 24034 ft | 454 kts | 139° |
| 2026-05-07 06:03 | 43.40130 | 16.79751 | 23604 ft | 448 kts | 139° |
| 2026-05-07 06:03 | 43.37683 | 16.82314 | 23183 ft | 442 kts | 139° |
| 2026-05-07 06:03 | 43.35245 | 16.84863 | 22759 ft | 435 kts | 138° |
| 2026-05-07 06:03 | 43.32878 | 16.87337 | 22342 ft | 429 kts | 138° |
| 2026-05-07 06:04 | 43.30529 | 16.89792 | 21924 ft | 423 kts | 137° |
| 2026-05-07 06:04 | 43.28212 | 16.92214 | 21503 ft | 416 kts | 137° |
| 2026-05-07 06:04 | 43.25912 | 16.94618 | 21079 ft | 410 kts | 137° |
| 2026-05-07 06:04 | 43.23672 | 16.96957 | 20659 ft | 404 kts | 137° |
| 2026-05-07 06:05 | 43.21469 | 16.99255 | 20236 ft | 398 kts | 137° |
| 2026-05-07 06:05 | 43.19289 | 17.01526 | 19812 ft | 392 kts | 137° |
| 2026-05-07 06:05 | 43.17136 | 17.03767 | 19386 ft | 386 kts | 137° |
| 2026-05-07 06:05 | 43.15060 | 17.06022 | 18962 ft | 377 kts | 133° |
| 2026-05-07 06:06 | 43.13255 | 17.08552 | 18553 ft | 367 kts | 125° |
| 2026-05-07 06:06 | 43.11770 | 17.11316 | 18157 ft | 358 kts | 119° |
| 2026-05-07 06:06 | 43.10429 | 17.14139 | 17768 ft | 352 kts | 118° |
| 2026-05-07 06:06 | 43.09130 | 17.16924 | 17390 ft | 347 kts | 118° |
| 2026-05-07 06:07 | 43.07839 | 17.19685 | 17022 ft | 342 kts | 119° |
| 2026-05-07 06:07 | 43.06575 | 17.22372 | 16667 ft | 337 kts | 119° |
| 2026-05-07 06:07 | 43.05306 | 17.25054 | 16315 ft | 332 kts | 120° |
| 2026-05-07 06:07 | 43.04065 | 17.27669 | 15976 ft | 327 kts | 120° |
| 2026-05-07 06:08 | 43.02836 | 17.30255 | 15644 ft | 322 kts | 120° |
| 2026-05-07 06:08 | 43.01637 | 17.32774 | 15326 ft | 317 kts | 120° |
| 2026-05-07 06:08 | 43.00445 | 17.35278 | 15015 ft | 313 kts | 120° |
| 2026-05-07 06:08 | 42.99264 | 17.37757 | 14710 ft | 308 kts | 120° |
| 2026-05-07 06:09 | 42.98100 | 17.40199 | 14411 ft | 304 kts | 120° |
| 2026-05-07 06:09 | 42.96963 | 17.42581 | 14122 ft | 299 kts | 120° |
| 2026-05-07 06:09 | 42.95835 | 17.44940 | 13837 ft | 295 kts | 120° |
| 2026-05-07 06:09 | 42.94722 | 17.47268 | 13554 ft | 291 kts | 120° |
| 2026-05-07 06:10 | 42.93626 | 17.49559 | 13280 ft | 286 kts | 120° |
| 2026-05-07 06:10 | 42.92546 | 17.51815 | 13011 ft | 282 kts | 120° |
| 2026-05-07 06:10 | 42.91483 | 17.54034 | 12747 ft | 278 kts | 120° |
| 2026-05-07 06:10 | 42.90440 | 17.56209 | 12491 ft | 274 kts | 120° |
| 2026-05-07 06:11 | 42.89401 | 17.58376 | 12234 ft | 270 kts | 120° |
| 2026-05-07 06:11 | 42.88391 | 17.60479 | 11979 ft | 266 kts | 120° |
| 2026-05-07 06:11 | 42.87381 | 17.62581 | 11675 ft | 265 kts | 120° |
| 2026-05-07 06:11 | 42.86366 | 17.64690 | 11347 ft | 264 kts | 120° |
| 2026-05-07 06:12 | 42.85367 | 17.66766 | 11034 ft | 263 kts | 121° |
| 2026-05-07 06:12 | 42.84371 | 17.68835 | 10723 ft | 261 kts | 121° |
| 2026-05-07 06:12 | 42.83384 | 17.70885 | 10416 ft | 260 kts | 121° |
| 2026-05-07 06:12 | 42.82386 | 17.72953 | 10103 ft | 259 kts | 121° |
| 2026-05-07 06:13 | 42.81403 | 17.74990 | 9797 ft | 257 kts | 121° |
| 2026-05-07 06:13 | 42.80424 | 17.77015 | 9508 ft | 255 kts | 121° |
| 2026-05-07 06:13 | 42.79457 | 17.79014 | 9217 ft | 253 kts | 121° |
| 2026-05-07 06:13 | 42.78498 | 17.80998 | 8926 ft | 252 kts | 121° |
| 2026-05-07 06:14 | 42.77532 | 17.82995 | 8627 ft | 250 kts | 121° |
| 2026-05-07 06:14 | 42.76580 | 17.84960 | 8345 ft | 248 kts | 121° |
| 2026-05-07 06:14 | 42.75613 | 17.86869 | 8107 ft | 245 kts | 127° |
| 2026-05-07 06:14 | 42.74424 | 17.88506 | 7898 ft | 242 kts | 139° |
| 2026-05-07 06:15 | 42.73053 | 17.89824 | 7668 ft | 239 kts | 144° |
| 2026-05-07 06:15 | 42.71671 | 17.91018 | 7408 ft | 234 kts | 145° |
| 2026-05-07 06:15 | 42.70333 | 17.92218 | 6982 ft | 228 kts | 138° |
| 2026-05-07 06:15 | 42.69255 | 17.93713 | 6540 ft | 221 kts | 123° |
| 2026-05-07 06:16 | 42.68426 | 17.95453 | 6088 ft | 218 kts | 124° |
| 2026-05-07 06:16 | 42.67245 | 17.96730 | 5622 ft | 222 kts | 158° |
| 2026-05-07 06:16 | 42.65737 | 17.96907 | 5176 ft | 224 kts | 189° |
| 2026-05-07 06:16 | 42.64246 | 17.96302 | 4733 ft | 225 kts | 198° |
| 2026-05-07 06:17 | 42.62795 | 17.95524 | 4281 ft | 223 kts | 200° |
| 2026-05-07 06:17 | 42.61442 | 17.94554 | 3824 ft | 224 kts | 220° |
| 2026-05-07 06:17 | 42.60606 | 17.92798 | 3369 ft | 225 kts | 255° |
| 2026-05-07 06:17 | 42.60636 | 17.90746 | 3031 ft | 218 kts | 292° |
| 2026-05-07 06:18 | 42.61469 | 17.89037 | 3002 ft | 218 kts | 312° |
| 2026-05-07 06:18 | 42.62363 | 17.87421 | 2977 ft | 212 kts | 306° |
| 2026-05-07 06:18 | 42.63150 | 17.85794 | 2975 ft | 198 kts | 305° |
| 2026-05-07 06:18 | 42.63890 | 17.84217 | 3050 ft | 197 kts | 304° |
| 2026-05-07 06:19 | 42.64621 | 17.82648 | 3031 ft | 197 kts | 304° |
| 2026-05-07 06:19 | 42.65350 | 17.81083 | 3009 ft | 197 kts | 304° |
| 2026-05-07 06:19 | 42.66086 | 17.79501 | 3000 ft | 197 kts | 304° |
| 2026-05-07 06:19 | 42.66814 | 17.77939 | 2997 ft | 197 kts | 304° |
| 2026-05-07 06:20 | 42.67543 | 17.76372 | 2995 ft | 197 kts | 304° |
| 2026-05-07 06:20 | 42.68316 | 17.74819 | 2991 ft | 195 kts | 315° |
| 2026-05-07 06:20 | 42.69423 | 17.73961 | 2972 ft | 180 kts | 355° |
| 2026-05-07 06:20 | 42.70624 | 17.74197 | 2993 ft | 172 kts | 24° |
| 2026-05-07 06:21 | 42.71698 | 17.74871 | 2996 ft | 171 kts | 30° |
| 2026-05-07 06:21 | 42.72740 | 17.75643 | 2996 ft | 170 kts | 33° |
| 2026-05-07 06:21 | 42.73764 | 17.76456 | 2995 ft | 170 kts | 33° |
| 2026-05-07 06:21 | 42.74758 | 17.77315 | 2992 ft | 168 kts | 43° |
| 2026-05-07 06:22 | 42.75283 | 17.78639 | 2987 ft | 159 kts | 84° |
| 2026-05-07 06:22 | 42.74488 | 17.81426 | 2999 ft | 160 kts | 118° |
| 2026-05-07 06:22 | 42.73913 | 17.82709 | 2996 ft | 159 kts | 119° |
| 2026-05-07 06:23 | 42.73333 | 17.84000 | 2993 ft | 158 kts | 119° |
| 2026-05-07 06:23 | 42.72771 | 17.85275 | 2992 ft | 158 kts | 118° |
| 2026-05-07 06:23 | 42.72216 | 17.86559 | 2993 ft | 158 kts | 118° |
| 2026-05-07 06:23 | 42.71666 | 17.87859 | 2995 ft | 157 kts | 118° |
| 2026-05-07 06:24 | 42.71130 | 17.89144 | 2994 ft | 155 kts | 118° |
| 2026-05-07 06:24 | 42.70608 | 17.90414 | 2994 ft | 155 kts | 117° |
| 2026-05-07 06:24 | 42.70083 | 17.91709 | 2994 ft | 155 kts | 117° |
| 2026-05-07 06:24 | 42.69576 | 17.92968 | 2989 ft | 144 kts | 117° |
| 2026-05-07 06:25 | 42.69110 | 17.94133 | 2992 ft | 140 kts | 117° |
| 2026-05-07 06:25 | 42.68646 | 17.95299 | 2993 ft | 139 kts | 116° |
| 2026-05-07 06:25 | 42.68187 | 17.96457 | 2993 ft | 139 kts | 116° |
| 2026-05-07 06:25 | 42.67728 | 17.97618 | 2994 ft | 139 kts | 116° |
| 2026-05-07 06:26 | 42.67269 | 17.98778 | 2994 ft | 139 kts | 116° |
| 2026-05-07 06:26 | 42.66805 | 17.99953 | 2994 ft | 139 kts | 116° |
| 2026-05-07 06:26 | 42.66352 | 18.01099 | 2994 ft | 139 kts | 116° |
| 2026-05-07 06:26 | 42.65892 | 18.02259 | 2994 ft | 139 kts | 116° |
| 2026-05-07 06:27 | 42.65431 | 18.03423 | 2994 ft | 139 kts | 116° |
| 2026-05-07 06:27 | 42.64970 | 18.04584 | 2994 ft | 139 kts | 116° |
| 2026-05-07 06:27 | 42.64508 | 18.05748 | 2994 ft | 139 kts | 116° |
| 2026-05-07 06:27 | 42.64047 | 18.06907 | 2994 ft | 139 kts | 116° |
| 2026-05-07 06:28 | 42.63588 | 18.08060 | 2994 ft | 139 kts | 116° |
| 2026-05-07 06:28 | 42.63126 | 18.09226 | 2992 ft | 139 kts | 116° |
| 2026-05-07 06:28 | 42.62664 | 18.10395 | 2857 ft | 139 kts | 116° |
| 2026-05-07 06:28 | 42.62211 | 18.11538 | 2673 ft | 138 kts | 116° |
| 2026-05-07 06:29 | 42.61753 | 18.12689 | 2489 ft | 138 kts | 117° |
| 2026-05-07 06:29 | 42.61294 | 18.13840 | 2305 ft | 137 kts | 117° |
| 2026-05-07 06:29 | 42.60840 | 18.14978 | 2123 ft | 137 kts | 117° |
| 2026-05-07 06:29 | 42.60387 | 18.16110 | 1942 ft | 136 kts | 117° |
| 2026-05-07 06:30 | 42.59930 | 18.17258 | 1759 ft | 136 kts | 117° |
| 2026-05-07 06:30 | 42.59486 | 18.18378 | 1580 ft | 135 kts | 117° |
| 2026-05-07 06:30 | 42.59041 | 18.19498 | 1401 ft | 135 kts | 117° |
| 2026-05-07 06:30 | 42.58595 | 18.20622 | 1221 ft | 134 kts | 118° |
| 2026-05-07 06:31 | 42.58150 | 18.21744 | 1041 ft | 134 kts | 118° |
| 2026-05-07 06:31 | 42.57711 | 18.22849 | 859 ft | 134 kts | 118° |
| 2026-05-07 06:31 | 42.57268 | 18.23967 | 684 ft | 133 kts | 118° |
| 2026-05-07 06:31 | 42.56836 | 18.25057 | 526 ft | 129 kts | 118° |
| 2026-05-07 06:32 | 42.56455 | 18.26007 | 524 ft | 94 kts | 116° |
| 2026-05-07 06:32 | 42.56242 | 18.26550 | 521 ft | 23 kts | 118° |
| 2026-05-07 06:32 | 42.56176 | 18.26647 | 518 ft | 9 kts | 179° |
| 2026-05-07 06:32 | 42.56132 | 18.26575 | 518 ft | 10 kts | 242° |
| 2026-05-07 06:33 | 42.56100 | 18.26481 | 518 ft | 12 kts | 247° |
| 2026-05-07 06:33 | 42.56115 | 18.26381 | 518 ft | 9 kts | 293° |
| 2026-05-07 06:33 | 42.56146 | 18.26297 | 519 ft | 9 kts | 300° |
| 2026-05-07 06:33 | 42.56178 | 18.26218 | 521 ft | 7 kts | 297° |
| 2026-05-07 06:34 | 42.56159 | 18.26163 | 520 ft | 5 kts | 208° |
| 2026-05-07 06:34 | 42.56140 | 18.26149 | 520 ft | 2 kts | 208° |
| 2026-05-07 06:34 | 42.56139 | 18.26148 | 520 ft | 0 kts | 208° |